Time;durP1;ratioP1;P1;durP2;ratioP2;P2;SDS_P1;SDS_P2;PMS_P1;PMS_P2;Temp;Humidity;BMP_temperature;BMP_pressure;BME280_temperature;BME280_humidity;BME280_pressure;Samples;Min_cycle;Max_cycle;Signal;HPM_P1;HPM_P2
2023/09/22 00:00:11;;;;;;;2.55;1.48;;;20.70;41.30;;;;;;352629;28;884;-56
2023/09/22 00:00:21;;;;;;;2.97;1.70;;;20.70;41.40;;;;;;352482;28;967;-55
2023/09/22 00:00:32;;;;;;;3.90;1.90;;;20.70;41.50;;;;;;352529;28;1769;-55
2023/09/22 00:00:43;;;;;;;4.10;1.85;;;20.70;41.50;;;;;;352565;28;932;-55
2023/09/22 00:00:55;;;;;;;4.45;1.77;;;20.70;41.50;;;;;;352518;27;1940;-55
2023/09/22 00:01:07;;;;;;;4.05;1.80;;;20.70;41.70;;;;;;352517;28;963;-55
2023/09/22 00:01:18;;;;;;;4.70;2.00;;;20.70;41.80;;;;;;352600;28;1045;-55
2023/09/22 00:01:29;;;;;;;4.20;1.77;;;20.70;41.70;;;;;;352515;28;893;-55
2023/09/22 00:01:40;;;;;;;3.72;1.58;;;20.70;41.60;;;;;;352550;28;1434;-55
2023/09/22 00:01:52;;;;;;;3.17;1.33;;;20.70;41.40;;;;;;352599;28;1011;-56
2023/09/22 00:02:03;;;;;;;3.10;1.33;;;20.70;41.40;;;;;;352455;28;1983;-55
2023/09/22 00:02:13;;;;;;;3.47;1.33;;;20.60;41.30;;;;;;352599;28;940;-55
2023/09/22 00:02:25;;;;;;;3.35;1.40;;;20.70;41.40;;;;;;352574;27;1173;-55
2023/09/22 00:02:40;;;;;;;3.55;1.52;;;20.60;41.40;;;;;;352548;28;905;-54
2023/09/22 00:02:50;;;;;;;3.72;1.60;;;20.60;41.40;;;;;;352586;28;1690;-55
2023/09/22 00:03:03;;;;;;;5.03;1.87;;;20.60;41.50;;;;;;352588;28;1006;-55
2023/09/22 00:03:13;;;;;;;4.50;1.70;;;20.70;41.50;;;;;;352564;28;1034;-55
2023/09/22 00:03:24;;;;;;;5.35;1.58;;;20.60;41.60;;;;;;352619;28;1089;-55
2023/09/22 00:03:35;;;;;;;4.53;1.40;;;20.60;41.60;;;;;;352514;28;966;-55
2023/09/22 00:03:47;;;;;;;4.53;1.40;;;20.60;41.60;;;;;;352590;28;1094;-56
2023/09/22 00:03:59;;;;;;;3.65;1.40;;;20.60;41.60;;;;;;352533;27;1122;-55
2023/09/22 00:04:10;;;;;;;3.28;1.42;;;20.60;41.70;;;;;;352467;28;1138;-55
2023/09/22 00:04:21;;;;;;;3.63;1.60;;;20.60;41.70;;;;;;352613;28;983;-54
2023/09/22 00:04:32;;;;;;;4.57;1.60;;;20.70;41.70;;;;;;352541;27;995;-56
2023/09/22 00:04:43;;;;;;;4.75;1.50;;;20.60;41.70;;;;;;352552;28;1286;-54
2023/09/22 00:04:54;;;;;;;4.68;1.70;;;20.70;41.80;;;;;;352600;28;980;-55
2023/09/22 00:05:07;;;;;;;3.43;1.87;;;20.60;41.90;;;;;;352497;28;1050;-55
2023/09/22 00:05:18;;;;;;;3.85;2.13;;;20.60;41.80;;;;;;352637;28;914;-55
2023/09/22 00:05:28;;;;;;;4.35;2.20;;;20.60;42.20;;;;;;352489;28;1099;-54
2023/09/22 00:05:39;;;;;;;4.45;2.20;;;20.60;42.10;;;;;;352602;27;964;-56
2023/09/22 00:05:52;;;;;;;3.90;1.90;;;20.60;42.20;;;;;;352609;28;1002;-55
2023/09/22 00:06:03;;;;;;;3.50;1.90;;;20.70;42.00;;;;;;352543;28;962;-56
2023/09/22 00:06:14;;;;;;;3.60;2.00;;;20.70;42.00;;;;;;352559;28;1058;-55
2023/09/22 00:06:25;;;;;;;4.35;1.95;;;20.60;42.10;;;;;;352475;28;1077;-54
2023/09/22 00:06:35;;;;;;;4.07;1.77;;;20.60;42.00;;;;;;352561;28;1784;-56
2023/09/22 00:06:46;;;;;;;3.65;1.70;;;20.60;42.00;;;;;;352579;28;1110;-55
2023/09/22 00:06:57;;;;;;;3.90;1.70;;;20.60;41.90;;;;;;352512;28;1309;-55
2023/09/22 00:07:08;;;;;;;3.80;1.80;;;20.60;41.90;;;;;;352532;28;987;-55
2023/09/22 00:07:19;;;;;;;3.53;1.65;;;20.60;41.90;;;;;;352616;28;1067;-55
2023/09/22 00:07:30;;;;;;;3.12;1.72;;;20.70;41.80;;;;;;352444;28;1471;-56
2023/09/22 00:07:41;;;;;;;3.40;1.80;;;20.60;42.00;;;;;;352606;28;1985;-55
2023/09/22 00:07:52;;;;;;;4.07;1.95;;;20.70;42.10;;;;;;352524;28;1206;-55
2023/09/22 00:08:04;;;;;;;4.30;1.80;;;20.60;42.10;;;;;;352502;28;1046;-57
2023/09/22 00:08:15;;;;;;;5.18;1.70;;;20.60;42.00;;;;;;352497;28;1111;-55
2023/09/22 00:08:26;;;;;;;6.75;1.75;;;20.60;41.90;;;;;;352649;28;907;-56
2023/09/22 00:08:36;;;;;;;6.53;2.10;;;20.60;42.00;;;;;;352589;28;987;-55
2023/09/22 00:08:47;;;;;;;5.03;2.10;;;20.60;42.30;;;;;;352547;27;1927;-56
2023/09/22 00:08:58;;;;;;;3.53;2.00;;;20.60;42.20;;;;;;352612;28;1150;-56
2023/09/22 00:09:09;;;;;;;3.28;2.00;;;20.60;42.10;;;;;;352564;28;1154;-55
2023/09/22 00:09:19;;;;;;;3.75;2.15;;;20.60;42.10;;;;;;352583;28;1418;-55
2023/09/22 00:09:30;;;;;;;4.37;2.30;;;20.60;42.20;;;;;;352492;28;1038;-55
2023/09/22 00:09:41;;;;;;;4.43;2.10;;;20.60;42.60;;;;;;352477;27;1882;-55
2023/09/22 00:09:51;;;;;;;4.90;2.15;;;20.60;42.40;;;;;;352584;28;1030;-54
2023/09/22 00:10:04;;;;;;;4.40;2.10;;;20.60;42.20;;;;;;352593;28;1083;-56
2023/09/22 00:10:15;;;;;;;4.18;2.30;;;20.60;42.20;;;;;;352527;28;1019;-55
2023/09/22 00:10:26;;;;;;;3.90;1.90;;;20.60;42.10;;;;;;352551;28;1119;-55
2023/09/22 00:10:36;;;;;;;4.15;1.80;;;20.60;42.10;;;;;;352626;28;1039;-56
2023/09/22 00:10:47;;;;;;;4.20;1.70;;;20.60;42.10;;;;;;352512;28;1040;-55
2023/09/22 00:10:58;;;;;;;3.80;1.63;;;20.60;42.10;;;;;;352582;28;1402;-55
2023/09/22 00:11:10;;;;;;;3.53;1.50;;;20.60;42.10;;;;;;352547;28;939;-55
2023/09/22 00:11:21;;;;;;;3.22;1.50;;;20.60;42.00;;;;;;352574;28;908;-55
2023/09/22 00:11:32;;;;;;;3.30;1.50;;;20.60;42.10;;;;;;352537;28;1038;-56
2023/09/22 00:11:42;;;;;;;3.15;1.58;;;20.60;42.10;;;;;;352590;28;1173;-56
2023/09/22 00:11:53;;;;;;;2.90;1.67;;;20.60;42.00;;;;;;352619;28;872;-56
2023/09/22 00:12:05;;;;;;;3.17;1.73;;;20.60;42.10;;;;;;352484;28;1099;-55
2023/09/22 00:12:16;;;;;;;3.20;1.70;;;20.60;42.10;;;;;;352632;28;1920;-54
2023/09/22 00:12:29;;;;;;;3.63;1.70;;;20.60;42.20;;;;;;352517;28;1320;-55
2023/09/22 00:12:39;;;;;;;3.90;1.90;;;20.60;42.10;;;;;;352553;28;931;-54
2023/09/22 00:12:50;;;;;;;4.13;1.90;;;20.60;42.20;;;;;;352490;28;1146;-56
2023/09/22 00:13:01;;;;;;;4.18;2.05;;;20.60;42.20;;;;;;352608;28;984;-55
2023/09/22 00:13:12;;;;;;;4.37;2.10;;;20.60;42.10;;;;;;352601;28;876;-55
2023/09/22 00:13:23;;;;;;;4.25;2.20;;;20.60;42.20;;;;;;352605;27;963;-55
2023/09/22 00:13:34;;;;;;;4.37;2.13;;;20.50;42.20;;;;;;352516;28;1916;-56
2023/09/22 00:13:45;;;;;;;4.82;2.20;;;20.60;42.20;;;;;;352617;28;979;-56
2023/09/22 00:13:56;;;;;;;5.38;2.28;;;20.60;42.20;;;;;;352600;28;932;-55
2023/09/22 00:14:07;;;;;;;4.53;2.07;;;20.60;42.20;;;;;;352598;27;1822;-55
2023/09/22 00:14:18;;;;;;;4.28;1.88;;;20.60;42.30;;;;;;352479;28;1181;-56
2023/09/22 00:14:29;;;;;;;3.40;1.65;;;20.60;42.30;;;;;;352500;28;1938;-55
2023/09/22 00:14:40;;;;;;;3.58;1.70;;;20.50;42.30;;;;;;352563;28;1079;-56
2023/09/22 00:14:50;;;;;;;3.30;1.42;;;20.50;42.40;;;;;;352628;28;865;-54
2023/09/22 00:15:03;;;;;;;3.50;1.40;;;20.50;42.40;;;;;;352510;28;1038;-55
2023/09/22 00:15:14;;;;;;;2.95;1.48;;;20.50;42.30;;;;;;352606;27;1053;-56
2023/09/22 00:15:25;;;;;;;2.90;1.65;;;20.50;42.30;;;;;;352566;28;1634;-56
2023/09/22 00:15:35;;;;;;;4.80;2.92;;;20.50;42.30;;;;;;352573;28;861;-55
2023/09/22 00:15:46;;;;;;;6.13;4.23;;;20.60;42.30;;;;;;352501;28;1014;-56
2023/09/22 00:15:57;;;;;;;7.43;4.93;;;20.50;42.80;;;;;;352610;28;1014;-56
2023/09/22 00:16:09;;;;;;;6.40;4.03;;;20.50;42.90;;;;;;352595;28;903;-56
2023/09/22 00:16:20;;;;;;;5.97;2.88;;;20.50;42.70;;;;;;352582;27;1105;-55
2023/09/22 00:16:34;;;;;;;6.47;2.70;;;20.50;42.70;;;;;;352545;28;1985;-55
2023/09/22 00:16:45;;;;;;;5.50;2.55;;;20.50;42.80;;;;;;352563;28;1373;-55
2023/09/22 00:16:55;;;;;;;4.28;2.38;;;20.50;42.70;;;;;;352591;28;1046;-55
2023/09/22 00:17:06;;;;;;;3.63;2.03;;;20.50;42.60;;;;;;352520;28;1103;-55
2023/09/22 00:17:17;;;;;;;4.07;1.95;;;20.50;42.60;;;;;;352503;28;1060;-56
2023/09/22 00:17:28;;;;;;;4.47;1.67;;;20.50;42.50;;;;;;352589;28;1018;-55
2023/09/22 00:17:39;;;;;;;5.10;2.00;;;20.50;42.60;;;;;;352543;28;1168;-56
2023/09/22 00:17:49;;;;;;;5.47;2.10;;;20.50;42.60;;;;;;352480;28;1091;-55
2023/09/22 00:18:00;;;;;;;4.15;2.05;;;20.50;42.60;;;;;;352531;28;1078;-55
2023/09/22 00:18:11;;;;;;;3.30;1.88;;;20.50;42.70;;;;;;352580;28;1091;-56
2023/09/22 00:18:22;;;;;;;3.60;1.85;;;20.50;42.80;;;;;;352477;28;1303;-55
2023/09/22 00:18:32;;;;;;;4.43;1.93;;;20.50;42.70;;;;;;352608;28;1002;-55
2023/09/22 00:18:43;;;;;;;6.18;2.40;;;20.50;42.90;;;;;;352550;28;1111;-55
2023/09/22 00:18:54;;;;;;;6.00;2.65;;;20.50;42.80;;;;;;352443;28;1449;-57
2023/09/22 00:19:05;;;;;;;5.28;2.63;;;20.50;42.70;;;;;;352611;28;833;-56
2023/09/22 00:19:16;;;;;;;4.70;2.50;;;20.50;42.60;;;;;;352513;28;2681;-55
2023/09/22 00:19:27;;;;;;;4.65;2.40;;;20.50;42.50;;;;;;352510;28;1103;-55
2023/09/22 00:19:38;;;;;;;3.72;2.05;;;20.50;42.60;;;;;;352611;28;1934;-55
2023/09/22 00:19:48;;;;;;;4.43;1.73;;;20.50;42.70;;;;;;352571;28;991;-55
2023/09/22 00:19:59;;;;;;;4.63;1.75;;;20.50;42.70;;;;;;352454;27;1121;-55
2023/09/22 00:20:13;;;;;;;4.72;2.00;;;20.50;42.60;;;;;;352597;28;797;-55
2023/09/22 00:20:24;;;;;;;3.53;1.90;;;20.50;42.70;;;;;;352490;28;1058;-57
2023/09/22 00:20:35;;;;;;;3.25;1.85;;;20.50;43.00;;;;;;352626;28;1020;-54
2023/09/22 00:20:46;;;;;;;3.20;1.70;;;20.50;43.50;;;;;;352585;28;899;-56
2023/09/22 00:20:57;;;;;;;4.95;1.73;;;20.50;43.30;;;;;;352479;28;1039;-54
2023/09/22 00:21:08;;;;;;;5.50;1.95;;;20.50;43.30;;;;;;352538;28;1099;-55
2023/09/22 00:21:19;;;;;;;5.82;2.35;;;20.50;43.20;;;;;;352554;27;1134;-55
2023/09/22 00:21:30;;;;;;;5.22;2.90;;;20.50;43.00;;;;;;352536;28;1181;-55
2023/09/22 00:21:41;;;;;;;5.50;3.50;;;20.50;43.00;;;;;;352567;28;846;-55
2023/09/22 00:21:55;;;;;;;6.18;3.80;;;20.50;43.00;;;;;;352482;28;1123;-56
2023/09/22 00:22:06;;;;;;;6.75;3.47;;;20.50;43.10;;;;;;352567;28;1019;-55
2023/09/22 00:22:17;;;;;;;8.77;4.00;;;20.50;43.10;;;;;;352563;28;1110;-55
2023/09/22 00:22:27;;;;;;;8.57;4.55;;;20.50;42.90;;;;;;352431;28;1157;-55
2023/09/22 00:22:38;;;;;;;7.47;4.22;;;20.50;42.80;;;;;;352514;28;1818;-55
2023/09/22 00:22:49;;;;;;;4.72;2.58;;;20.40;42.70;;;;;;352551;28;1050;-55
2023/09/22 00:23:00;;;;;;;3.97;1.67;;;20.40;42.70;;;;;;352451;28;1832;-55
2023/09/22 00:23:11;;;;;;;4.22;1.55;;;20.50;42.70;;;;;;352552;28;966;-55
2023/09/22 00:23:22;;;;;;;4.18;1.60;;;20.40;42.70;;;;;;352556;28;1151;-55
2023/09/22 00:23:32;;;;;;;3.95;1.60;;;20.50;42.80;;;;;;352514;28;921;-54
2023/09/22 00:23:43;;;;;;;3.55;1.60;;;20.40;43.10;;;;;;352598;27;1062;-55
2023/09/22 00:23:54;;;;;;;3.23;1.70;;;20.50;43.10;;;;;;352624;27;1046;-55
2023/09/22 00:24:05;;;;;;;3.22;1.67;;;20.50;42.90;;;;;;352559;28;1848;-55
2023/09/22 00:24:16;;;;;;;3.47;1.70;;;20.50;42.80;;;;;;352545;28;1077;-57
2023/09/22 00:24:26;;;;;;;3.75;1.60;;;20.40;42.80;;;;;;352567;28;888;-57
2023/09/22 00:24:37;;;;;;;3.83;1.50;;;20.40;43.00;;;;;;352477;28;1034;-54
2023/09/22 00:24:48;;;;;;;4.65;1.50;;;20.40;43.00;;;;;;352533;27;1038;-55
2023/09/22 00:25:00;;;;;;;4.50;1.60;;;20.40;43.10;;;;;;352591;28;1083;-54
2023/09/22 00:25:12;;;;;;;3.40;1.55;;;20.40;43.10;;;;;;352528;28;1106;-56
2023/09/22 00:25:23;;;;;;;3.70;1.80;;;20.40;43.00;;;;;;352566;28;1046;-55
2023/09/22 00:25:34;;;;;;;4.50;1.97;;;20.40;42.90;;;;;;352488;28;1501;-56
2023/09/22 00:25:44;;;;;;;4.93;2.20;;;20.40;42.90;;;;;;352475;28;1026;-55
2023/09/22 00:25:55;;;;;;;6.03;2.80;;;20.40;42.90;;;;;;352553;28;828;-55
2023/09/22 00:26:06;;;;;;;7.68;4.40;;;20.40;42.90;;;;;;352576;28;832;-56
2023/09/22 00:26:17;;;;;;;9.93;5.68;;;20.40;42.90;;;;;;352522;28;1008;-56
2023/09/22 00:26:27;;;;;;;9.47;5.73;;;20.40;42.90;;;;;;352521;28;1178;-55
2023/09/22 00:26:38;;;;;;;8.05;4.85;;;20.40;42.90;;;;;;352553;28;1106;-53
2023/09/22 00:26:49;;;;;;;6.03;4.13;;;20.40;42.90;;;;;;352483;28;1785;-56
2023/09/22 00:27:00;;;;;;;5.15;3.53;;;20.40;42.90;;;;;;352648;28;995;-54
2023/09/22 00:27:11;;;;;;;5.22;3.13;;;20.40;42.90;;;;;;352545;28;983;-55
2023/09/22 00:27:21;;;;;;;4.75;2.50;;;20.40;43.00;;;;;;352531;28;956;-54
2023/09/22 00:27:32;;;;;;;4.60;2.27;;;20.40;43.00;;;;;;352600;28;944;-55
2023/09/22 00:27:43;;;;;;;5.35;2.50;;;20.40;43.00;;;;;;352576;27;1825;-55
2023/09/22 00:27:53;;;;;;;5.72;2.55;;;20.40;43.20;;;;;;352483;28;1126;-55
2023/09/22 00:28:04;;;;;;;5.13;2.28;;;20.40;43.20;;;;;;352578;28;971;-55
2023/09/22 00:28:15;;;;;;;4.25;1.80;;;20.40;43.20;;;;;;352551;28;1025;-56
2023/09/22 00:28:26;;;;;;;4.20;1.80;;;20.40;43.20;;;;;;352473;27;1126;-56
2023/09/22 00:28:37;;;;;;;4.65;1.98;;;20.40;43.20;;;;;;352541;28;2548;-55
2023/09/22 00:28:48;;;;;;;5.03;2.47;;;20.40;43.20;;;;;;352638;28;890;-56
2023/09/22 00:28:58;;;;;;;7.47;2.90;;;20.40;43.10;;;;;;352477;28;1248;-56
2023/09/22 00:29:09;;;;;;;7.18;2.72;;;20.40;43.10;;;;;;352473;28;1473;-56
2023/09/22 00:29:20;;;;;;;5.37;2.50;;;20.40;43.10;;;;;;352590;28;1021;-55
2023/09/22 00:29:31;;;;;;;5.15;2.45;;;20.40;43.10;;;;;;352506;28;1785;-56
2023/09/22 00:29:42;;;;;;;5.17;2.47;;;20.40;43.10;;;;;;352552;28;1976;-55
2023/09/22 00:29:52;;;;;;;4.72;2.03;;;20.40;43.10;;;;;;352529;28;1066;-57
2023/09/22 00:30:04;;;;;;;3.92;1.85;;;20.40;43.10;;;;;;352449;28;1110;-56
2023/09/22 00:30:15;;;;;;;3.85;1.60;;;20.40;43.20;;;;;;352557;28;1062;-56
2023/09/22 00:30:26;;;;;;;3.23;1.57;;;20.40;43.20;;;;;;352542;28;1284;-53
2023/09/22 00:30:37;;;;;;;3.33;1.50;;;20.30;43.20;;;;;;352538;28;1015;-56
2023/09/22 00:30:48;;;;;;;3.73;1.50;;;20.40;43.20;;;;;;352490;27;1846;-55
2023/09/22 00:30:58;;;;;;;5.00;1.70;;;20.40;43.20;;;;;;352562;28;925;-55
2023/09/22 00:31:09;;;;;;;6.30;1.88;;;20.40;43.20;;;;;;352458;28;1022;-55
2023/09/22 00:31:20;;;;;;;5.68;2.00;;;20.40;43.10;;;;;;352552;28;1102;-54
2023/09/22 00:31:30;;;;;;;4.93;2.03;;;20.40;43.20;;;;;;352556;28;927;-56
2023/09/22 00:31:41;;;;;;;3.88;2.13;;;20.30;43.20;;;;;;352439;28;1034;-56
2023/09/22 00:31:52;;;;;;;4.63;2.50;;;20.30;43.20;;;;;;352576;28;847;-56
2023/09/22 00:32:03;;;;;;;5.60;2.92;;;20.40;43.40;;;;;;352551;28;1042;-55
2023/09/22 00:32:14;;;;;;;6.07;3.00;;;20.40;43.30;;;;;;352580;28;1974;-56
2023/09/22 00:32:25;;;;;;;5.85;2.40;;;20.30;43.30;;;;;;352579;28;887;-56
2023/09/22 00:32:35;;;;;;;5.50;2.20;;;20.40;43.40;;;;;;352543;28;1019;-56
2023/09/22 00:32:46;;;;;;;5.05;2.00;;;20.40;43.60;;;;;;352552;28;967;-56
2023/09/22 00:32:57;;;;;;;5.00;2.33;;;20.30;43.50;;;;;;352562;28;967;-56
2023/09/22 00:33:08;;;;;;;5.68;3.15;;;20.40;43.50;;;;;;352507;28;1186;-55
2023/09/22 00:33:19;;;;;;;8.73;4.70;;;20.40;43.50;;;;;;352588;27;804;-54
2023/09/22 00:33:29;;;;;;;9.18;5.13;;;20.40;43.60;;;;;;352430;27;1146;-57
2023/09/22 00:33:40;;;;;;;8.23;4.30;;;20.40;43.50;;;;;;352597;28;801;-55
2023/09/22 00:33:51;;;;;;;6.10;3.30;;;20.40;43.40;;;;;;352580;27;954;-54
2023/09/22 00:34:02;;;;;;;4.70;2.35;;;20.40;43.30;;;;;;352519;28;1970;-55
2023/09/22 00:34:13;;;;;;;4.00;2.07;;;20.40;43.30;;;;;;352550;28;1573;-55
2023/09/22 00:34:24;;;;;;;4.53;1.98;;;20.40;43.40;;;;;;352350;28;1107;-55
2023/09/22 00:34:34;;;;;;;4.60;2.00;;;20.40;43.40;;;;;;352562;28;903;-56
2023/09/22 00:34:45;;;;;;;4.23;1.80;;;20.40;43.40;;;;;;352559;28;986;-55
2023/09/22 00:34:56;;;;;;;3.13;1.80;;;20.40;43.30;;;;;;352558;28;1094;-55
2023/09/22 00:35:10;;;;;;;3.17;1.85;;;20.40;43.40;;;;;;352594;28;853;-56
2023/09/22 00:35:21;;;;;;;4.13;2.38;;;20.40;43.40;;;;;;352493;28;2039;-56
2023/09/22 00:35:32;;;;;;;4.60;2.55;;;20.30;43.30;;;;;;352529;28;1161;-57
2023/09/22 00:35:43;;;;;;;5.27;2.50;;;20.40;43.30;;;;;;352571;28;1014;-55
2023/09/22 00:36:00;;;;;;;4.65;2.20;;;20.40;43.30;;;;;;352605;28;910;-55
2023/09/22 00:36:11;;;;;;;3.90;1.70;;;20.40;43.40;;;;;;352540;28;975;-57
2023/09/22 00:36:22;;;;;;;4.43;1.50;;;20.30;43.40;;;;;;352590;28;984;-54
2023/09/22 00:36:33;;;;;;;4.05;1.30;;;20.30;43.40;;;;;;352593;28;967;-56
2023/09/22 00:36:44;;;;;;;4.53;1.33;;;20.30;43.40;;;;;;352554;27;911;-56
2023/09/22 00:36:56;;;;;;;4.50;1.40;;;20.30;43.40;;;;;;352498;28;886;-55
2023/09/22 00:37:07;;;;;;;3.90;1.33;;;20.30;43.40;;;;;;352528;28;1094;-55
2023/09/22 00:37:18;;;;;;;3.97;1.38;;;20.30;43.30;;;;;;352568;28;1814;-55
2023/09/22 00:37:28;;;;;;;3.33;1.30;;;20.30;43.30;;;;;;352560;28;939;-55
2023/09/22 00:37:42;;;;;;;3.58;1.40;;;20.30;43.40;;;;;;352504;28;920;-55
2023/09/22 00:37:52;;;;;;;4.75;2.03;;;20.30;43.40;;;;;;352491;28;1178;-55
2023/09/22 00:38:03;;;;;;;5.27;2.73;;;20.30;43.40;;;;;;352594;28;1002;-56
2023/09/22 00:38:14;;;;;;;5.47;3.10;;;20.30;43.40;;;;;;352498;27;1102;-56
2023/09/22 00:38:25;;;;;;;5.43;2.78;;;20.30;43.40;;;;;;352605;28;1077;-57
2023/09/22 00:38:36;;;;;;;5.70;2.30;;;20.30;43.40;;;;;;352527;28;1331;-56
2023/09/22 00:38:47;;;;;;;5.15;2.10;;;20.30;43.50;;;;;;352478;28;1085;-54
2023/09/22 00:38:57;;;;;;;5.13;1.90;;;20.30;43.50;;;;;;352564;28;963;-55
2023/09/22 00:39:08;;;;;;;4.50;1.90;;;20.30;43.70;;;;;;352495;28;1501;-55
2023/09/22 00:39:19;;;;;;;3.97;1.67;;;20.30;43.70;;;;;;352477;28;1201;-54
2023/09/22 00:39:29;;;;;;;3.42;1.42;;;20.30;43.60;;;;;;352592;28;991;-56
2023/09/22 00:39:40;;;;;;;3.67;1.42;;;20.30;43.60;;;;;;352543;28;1091;-56
2023/09/22 00:39:51;;;;;;;4.53;1.50;;;20.30;43.60;;;;;;352512;28;963;-56
2023/09/22 00:40:02;;;;;;;4.77;1.53;;;20.30;43.70;;;;;;352606;28;812;-55
2023/09/22 00:40:14;;;;;;;4.45;1.40;;;20.30;43.70;;;;;;352574;28;836;-54
2023/09/22 00:40:24;;;;;;;3.83;1.55;;;20.30;43.60;;;;;;352497;28;910;-54
2023/09/22 00:40:35;;;;;;;3.47;1.60;;;20.30;43.60;;;;;;352579;28;1037;-54
2023/09/22 00:40:46;;;;;;;3.38;1.50;;;20.30;43.60;;;;;;352563;28;1142;-54
2023/09/22 00:40:56;;;;;;;3.80;1.37;;;20.30;43.60;;;;;;352491;28;1282;-55
2023/09/22 00:41:07;;;;;;;4.25;1.20;;;20.30;43.50;;;;;;352544;28;860;-56
2023/09/22 00:41:18;;;;;;;4.47;1.27;;;20.20;43.40;;;;;;352421;28;1745;-55
2023/09/22 00:41:29;;;;;;;3.90;1.40;;;20.30;43.40;;;;;;352506;27;1000;-54
2023/09/22 00:41:39;;;;;;;3.10;1.30;;;20.30;43.40;;;;;;352562;28;1042;-55
2023/09/22 00:41:53;;;;;;;2.75;1.15;;;20.30;43.30;;;;;;352565;28;971;-57
2023/09/22 00:42:09;;;;;;;4.88;1.40;;;20.20;43.40;;;;;;352451;28;1026;-56
2023/09/22 00:42:21;;;;;;;5.60;1.70;;;20.30;43.40;;;;;;352536;28;1002;-55
2023/09/22 00:42:32;;;;;;;3.63;1.40;;;20.20;43.50;;;;;;352442;28;1213;-55
2023/09/22 00:42:43;;;;;;;3.60;1.20;;;20.30;43.50;;;;;;352528;27;1347;-55
2023/09/22 00:43:11;;;;;;;3.60;1.30;;;20.20;43.50;;;;;;352464;28;1019;-55
2023/09/22 00:43:22;;;;;;;3.55;1.55;;;20.20;43.50;;;;;;352526;28;1851;-55
2023/09/22 00:43:32;;;;;;;4.10;1.65;;;20.20;43.60;;;;;;352527;28;1095;-56
2023/09/22 00:43:43;;;;;;;4.03;1.70;;;20.20;43.60;;;;;;352507;27;1052;-55
2023/09/22 00:43:54;;;;;;;3.55;1.40;;;20.20;43.60;;;;;;352581;27;1054;-56
2023/09/22 00:44:05;;;;;;;3.58;1.50;;;20.20;43.60;;;;;;352550;28;1015;-55
2023/09/22 00:44:15;;;;;;;3.40;1.40;;;20.20;43.60;;;;;;352470;28;1006;-55
2023/09/22 00:44:26;;;;;;;4.13;1.70;;;20.20;43.70;;;;;;352532;28;1098;-55
2023/09/22 00:44:37;;;;;;;3.50;1.67;;;20.20;43.70;;;;;;352575;28;820;-55
2023/09/22 00:44:48;;;;;;;3.63;1.60;;;20.20;43.80;;;;;;352500;28;975;-55
2023/09/22 00:44:59;;;;;;;3.58;1.50;;;20.20;43.90;;;;;;352533;28;994;-56
2023/09/22 00:45:10;;;;;;;3.92;1.58;;;20.20;44.10;;;;;;352522;28;1830;-56
2023/09/22 00:45:20;;;;;;;4.32;1.90;;;20.20;44.10;;;;;;352471;28;1014;-55
2023/09/22 00:45:31;;;;;;;3.95;2.10;;;20.20;44.10;;;;;;352577;28;1030;-56
2023/09/22 00:45:45;;;;;;;3.45;2.13;;;20.20;44.00;;;;;;352457;28;935;-54
2023/09/22 00:45:56;;;;;;;4.20;2.03;;;20.20;44.10;;;;;;352536;28;1039;-55
2023/09/22 00:46:07;;;;;;;4.26;1.86;;;20.20;44.00;;;;;;352419;28;979;-56
2023/09/22 00:46:23;;;;;;;4.80;1.70;;;20.20;43.80;;;;;;352557;28;1035;-55
2023/09/22 00:46:34;;;;;;;4.32;1.60;;;20.20;43.70;;;;;;352461;28;967;-55
2023/09/22 00:46:45;;;;;;;4.17;1.73;;;20.20;43.70;;;;;;352497;28;1085;-54
2023/09/22 00:46:56;;;;;;;4.72;2.03;;;20.30;43.70;;;;;;352494;28;890;-55
2023/09/22 00:47:09;;;;;;;5.43;2.23;;;20.30;44.00;;;;;;352539;28;939;-57
2023/09/22 00:47:20;;;;;;;5.40;2.15;;;20.20;44.00;;;;;;352495;28;1007;-55
2023/09/22 00:47:31;;;;;;;4.15;1.80;;;20.20;43.90;;;;;;352518;28;963;-55
2023/09/22 00:47:42;;;;;;;3.15;1.58;;;20.20;43.80;;;;;;352605;28;867;-55
2023/09/22 00:47:53;;;;;;;3.75;1.52;;;20.20;43.80;;;;;;352469;28;1834;-54
2023/09/22 00:48:04;;;;;;;3.57;1.43;;;20.20;43.80;;;;;;352595;28;840;-55
2023/09/22 00:48:23;;;;;;;3.88;1.52;;;20.20;43.70;;;;;;352595;28;1038;-55
2023/09/22 00:48:35;;;;;;;4.22;2.05;;;20.20;43.80;;;;;;352551;28;868;-56
2023/09/22 00:48:45;;;;;;;4.82;2.10;;;20.20;43.90;;;;;;352453;28;1056;-55
2023/09/22 00:48:57;;;;;;;4.78;1.90;;;20.20;43.90;;;;;;352514;28;1053;-56
2023/09/22 00:49:09;;;;;;;5.78;2.00;;;20.20;43.90;;;;;;352448;28;936;-57
2023/09/22 00:49:19;;;;;;;4.80;1.92;;;20.20;44.00;;;;;;352343;28;1058;-54
2023/09/22 00:49:31;;;;;;;4.03;1.80;;;20.20;44.00;;;;;;352361;28;1765;-55
2023/09/22 00:49:42;;;;;;;3.20;1.55;;;20.20;44.00;;;;;;352168;28;2049;-55
2023/09/22 00:49:54;;;;;;;3.42;1.70;;;20.20;43.80;;;;;;352363;28;861;-55
2023/09/22 00:50:09;;;;;;;3.33;1.70;;;20.20;43.80;;;;;;352413;28;1829;-56
2023/09/22 00:50:20;;;;;;;4.03;1.65;;;20.20;43.80;;;;;;352544;28;962;-55
2023/09/22 00:50:30;;;;;;;4.45;1.70;;;20.20;43.80;;;;;;352395;28;1186;-56
2023/09/22 00:50:41;;;;;;;4.47;1.70;;;20.20;43.80;;;;;;352539;28;844;-55
2023/09/22 00:50:53;;;;;;;3.92;1.52;;;20.20;43.80;;;;;;352543;27;824;-55
2023/09/22 00:51:03;;;;;;;4.07;1.42;;;20.20;43.80;;;;;;352542;28;1045;-55
2023/09/22 00:51:19;;;;;;;3.80;1.50;;;20.20;43.80;;;;;;352494;28;1161;-55
2023/09/22 00:51:29;;;;;;;3.85;1.90;;;20.20;43.80;;;;;;352555;28;892;-54
2023/09/22 00:51:40;;;;;;;3.95;2.00;;;20.20;43.80;;;;;;352534;28;1927;-55
2023/09/22 00:51:52;;;;;;;4.38;2.00;;;20.20;43.90;;;;;;352558;28;1019;-55
2023/09/22 00:52:03;;;;;;;4.00;1.65;;;20.20;43.90;;;;;;352470;28;1378;-56
2023/09/22 00:52:14;;;;;;;3.85;1.40;;;20.20;43.90;;;;;;352438;28;1022;-54
2023/09/22 00:52:27;;;;;;;4.30;1.67;;;20.20;43.90;;;;;;352557;28;1058;-55
2023/09/22 00:52:38;;;;;;;4.40;1.85;;;20.20;43.90;;;;;;352519;28;979;-55
2023/09/22 00:52:49;;;;;;;4.47;1.92;;;20.20;43.90;;;;;;352481;28;1115;-56
2023/09/22 00:53:00;;;;;;;5.22;1.98;;;20.20;43.90;;;;;;352462;28;1089;-56
2023/09/22 00:53:11;;;;;;;5.15;1.85;;;20.20;43.90;;;;;;352438;28;1391;-55
2023/09/22 00:53:27;;;;;;;4.90;1.80;;;20.20;43.90;;;;;;352610;28;920;-55
2023/09/22 00:53:39;;;;;;;4.13;1.65;;;20.20;43.90;;;;;;352499;28;1131;-55
2023/09/22 00:53:52;;;;;;;4.70;1.80;;;20.20;43.90;;;;;;352440;28;1114;-56
2023/09/22 00:54:03;;;;;;;4.15;1.83;;;20.20;43.90;;;;;;352566;28;892;-55
2023/09/22 00:54:13;;;;;;;3.97;1.70;;;20.20;43.90;;;;;;352499;28;1238;-55
2023/09/22 00:54:25;;;;;;;3.55;1.60;;;20.20;44.00;;;;;;352536;28;864;-56
2023/09/22 00:54:37;;;;;;;4.35;1.67;;;20.20;44.00;;;;;;352416;28;1111;-55
2023/09/22 00:54:51;;;;;;;4.30;1.65;;;20.20;44.10;;;;;;352443;28;1079;-55
2023/09/22 00:55:02;;;;;;;3.85;1.58;;;20.20;44.00;;;;;;352482;28;1193;-55
2023/09/22 00:55:13;;;;;;;4.00;1.60;;;20.20;44.00;;;;;;352469;28;1776;-55
2023/09/22 00:55:24;;;;;;;4.57;1.70;;;20.20;44.00;;;;;;352449;28;1569;-55
2023/09/22 00:55:34;;;;;;;4.35;1.80;;;20.20;44.00;;;;;;352551;28;1795;-56
2023/09/22 00:55:49;;;;;;;4.17;1.67;;;20.20;44.00;;;;;;352490;28;1304;-54
2023/09/22 00:56:01;;;;;;;3.67;1.60;;;20.20;44.00;;;;;;352471;28;1205;-54
2023/09/22 00:56:12;;;;;;;4.47;1.83;;;20.20;44.00;;;;;;352406;28;1110;-54
2023/09/22 00:56:24;;;;;;;5.07;1.90;;;20.20;44.10;;;;;;352530;28;856;-55
2023/09/22 00:56:35;;;;;;;4.82;1.77;;;20.20;44.10;;;;;;352494;28;998;-55
2023/09/22 00:56:46;;;;;;;3.97;1.70;;;20.20;44.10;;;;;;352543;28;789;-55
2023/09/22 00:56:57;;;;;;;4.57;1.88;;;20.20;44.10;;;;;;352462;28;962;-55
2023/09/22 00:57:08;;;;;;;4.18;1.83;;;20.20;44.10;;;;;;352408;28;1143;-55
2023/09/22 00:57:20;;;;;;;4.05;1.88;;;20.20;44.20;;;;;;352497;28;956;-54
2023/09/22 00:57:31;;;;;;;5.10;1.90;;;20.20;44.20;;;;;;352555;28;970;-54
2023/09/22 00:57:41;;;;;;;5.05;1.90;;;20.20;44.20;;;;;;352453;28;917;-56
2023/09/22 00:57:53;;;;;;;4.82;1.70;;;20.20;44.20;;;;;;352499;28;1157;-55
2023/09/22 00:58:04;;;;;;;4.07;1.60;;;20.20;44.30;;;;;;352489;28;1114;-55
2023/09/22 00:58:15;;;;;;;4.20;1.58;;;20.20;44.30;;;;;;352454;28;1126;-56
2023/09/22 00:58:25;;;;;;;3.55;1.60;;;20.20;44.30;;;;;;352494;28;1099;-55
2023/09/22 00:58:36;;;;;;;4.00;1.60;;;20.20;44.20;;;;;;352544;27;1554;-55
2023/09/22 00:58:49;;;;;;;3.50;1.40;;;20.20;44.20;;;;;;352467;28;1030;-55
2023/09/22 00:59:00;;;;;;;3.20;1.45;;;20.20;44.00;;;;;;352508;28;845;-55
2023/09/22 00:59:11;;;;;;;3.78;1.65;;;20.20;43.90;;;;;;352549;28;887;-55
2023/09/22 00:59:22;;;;;;;4.05;1.67;;;20.20;43.90;;;;;;352453;28;1994;-56
2023/09/22 00:59:33;;;;;;;3.90;1.50;;;20.10;44.00;;;;;;352596;28;872;-55
2023/09/22 00:59:46;;;;;;;4.40;1.50;;;20.20;44.10;;;;;;352544;28;845;-54
2023/09/22 00:59:57;;;;;;;4.78;1.70;;;20.10;44.10;;;;;;352477;28;1086;-55
2023/09/22 01:00:09;;;;;;;4.05;1.80;;;20.20;44.10;;;;;;352437;28;1238;-55
2023/09/22 01:00:20;;;;;;;3.30;1.60;;;20.20;44.00;;;;;;352521;28;995;-55
2023/09/22 01:00:31;;;;;;;2.97;1.45;;;20.10;44.00;;;;;;352387;28;1086;-55